Home > Products > Valid Products > MTR

000
SAUS43 KDDC 250457
MTRP28
METAR KP28 250456Z AUTO 00000KT 09/03 A2992 RMK AO1 SLP130 T00940028





000
SAUS43 KDDC 250357
MTRP28
METAR KP28 250356Z AUTO 00000KT 11/03 A2992 RMK AO1 SLP127 T01060033





000
SAUS43 KDDC 250257
MTRP28
METAR KP28 250256Z AUTO 00000KT 14/01 A2991 RMK AO1 SLP124 T01390011
51013





000
SAUS43 KDDC 250157
MTRP28
METAR KP28 250156Z AUTO 00000KT 18/00 A2990 RMK AO1 SLP118 T01780000





000
SAUS43 KDDC 250057
MTRP28
METAR KP28 250056Z AUTO 34003KT 19/00 A2989 RMK AO1 SLP114 T01940000





000
SAUS43 KDDC 242357
MTRP28
METAR KP28 242356Z AUTO 35009KT 21/M01 A2987 RMK AO1 SLP106
T02111011 10228 20178 53006





000
SAUS43 KDDC 242257
MTRP28
METAR KP28 242256Z AUTO 33013G23KT 22/M02 A2986 RMK AO1 SLP102
T02171017





000
SAUS43 KDDC 242157
MTRP28
METAR KP28 242156Z AUTO 36014G23KT 22/M02 A2985 RMK AO1 PK WND
34028/2145 SLP099 T02171017





000
SAUS43 KDDC 242057
MTRP28
METAR KP28 242056Z AUTO 36018G28KT 22/M01 A2985 RMK AO1 PK WND
36030/2010 SLP096 T02221006 50001





000
SAUS43 KDDC 241957
MTRP28
METAR KP28 241956Z AUTO 34020G30KT 21/M01 A2985 RMK AO1 PK WND
35030/1950 SLP098 T02111011





000
SAUS43 KDDC 241857
MTRP28
METAR KP28 241856Z AUTO 36014G28KT 20/04 A2985 RMK AO1 PK WND
32029/1833 SLP100 T02000044





000
SAUS43 KDDC 241758
MTRP28
METAR KP28 241756Z AUTO 34021G31KT 18/03 A2985 RMK AO1 PK WND
33037/1705 SLP099 T01830028 10189 20133 51017





000
SAUS43 KDDC 241657
MTRP28
METAR KP28 241656Z AUTO 34023G36KT 17/04 A2984 RMK AO1 PK WND
33040/1634 SLP096 T01720044





000
SAUS43 KDDC 241558
MTRP28
METAR KP28 241556Z AUTO 33021G37KT 17/06 A2982 RMK AO1 PK WND
33037/1549 SLP090 T01720061





000
SAUS43 KDDC 241458
MTRP28
METAR KP28 241456Z AUTO 33020G27KT 16/09 A2980 RMK AO1 PK WND
34028/1437 SLP079 T01610089 51041





000
SAUS43 KDDC 241357
MTRP28
METAR KP28 241356Z AUTO 30013G21KT 14/09 A2979 RMK AO1 PRESRR SLP075
T01440089





000
SAUS43 KDDC 241257
MTRP28
METAR KP28 241256Z AUTO 36013G21KT 13/09 A2971 RMK AO1 PK WND
02026/1242 PRESRR SLP048 T01330094





000
SAUS43 KDDC 241157
MTRP28
METAR KP28 241156Z AUTO 36015G22KT 14/11 A2967 RMK AO1 PK WND
01027/1103 PRESFR SLP035 60008 70008 T01440111 10194 20133 51021





000
SAUS43 KDDC 241058
MTRP28
METAR KP28 241056Z AUTO 01021G27KT 14/11 A2966 RMK AO1 PK WND
36029/0958 SLP029 P0003 T01390106





000
SAUS43 KDDC 240957
MTRP28
METAR KP28 240956Z AUTO 36019G29KT 14/12 A2965 RMK AO1 PK WND
36029/0951 WSHFT 0907 SLP027 P0005 T01390117





000
SAUS43 KDDC 240928
MTRP28
SPECI KP28 240927Z AUTO 36023G29KT 15/12 A2963 RMK AO1 PK WND
36029/0927 WSHFT 0907 T01500122





000
SAUS43 KDDC 240857
MTRP28
METAR KP28 240856Z AUTO 19007KT 19/15 A2961 RMK AO1 SLP011 T01890150
53004





000
SAUS43 KDDC 240757
MTRP28
METAR KP28 240756Z AUTO 00000KT 18/14 A2959 RMK AO1 SLP006 T01780144





000
SAUS43 KDDC 240657
MTRP28
METAR KP28 240656Z AUTO 14008KT 18/14 A2957 RMK AO1 SLP000 T01780144





000
SAUS43 KDDC 240557
MTRP28
METAR KP28 240556Z AUTO 16013G20KT 18/14 A2960 RMK AO1 PK WND
17026/0536 SLP007 T01830139 10267 20183 402890128 51013





000
SAUS43 KDDC 240457
MTRP28
METAR KP28 240456Z AUTO 16013G24KT 19/12 A2959 RMK AO1 PK WND
16033/0424 SLP004 T01940122





000
SAUS43 KDDC 240357
MTRP28
METAR KP28 240356Z AUTO 17018G30KT 21/10 A2958 RMK AO1 PK WND
19035/0339 SLP002 T02060100





000
SAUS43 KDDC 240258
MTRP28
METAR KP28 240256Z AUTO 18022G33KT 23/11 A2956 RMK AO1 PK WND
18033/0252 SLP995 T02280106 55006





000
SAUS43 KDDC 240157
MTRP28
METAR KP28 240156Z AUTO 17019G31KT 24/11 A2955 RMK AO1 PK WND
17036/0117 SLP994 T02440106





000
SAUS43 KDDC 240057
MTRP28
METAR KP28 240056Z AUTO 17018G31KT 26/11 A2955 RMK AO1 PK WND
16031/0047 SLP996 T02560111





000
SAUS43 KDDC 232357
MTRP28
METAR KP28 232356Z AUTO 17020G34KT 27/11 A2957 RMK AO1 PK WND
18034/2350 SLP003 T02670111 10289 20250 55027





000
SAUS43 KDDC 232257
MTRP28
METAR KP28 232256Z AUTO 17015G26KT 28/11 A2957 RMK AO1 PK WND
17034/2206 SLP000 T02830111





000
SAUS43 KDDC 232157
MTRP28
METAR KP28 232156Z AUTO 18020G27KT 29/12 A2960 RMK AO1 PK WND
18029/2109 PRESFR SLP012 T02890117





000
SAUS43 KDDC 232057
MTRP28
METAR KP28 232056Z AUTO 18015G22KT 27/12 A2966 RMK AO1 SLP029
T02670117 58029





000
SAUS43 KDDC 231957
MTRP28
METAR KP28 231956Z AUTO 19014G20KT 27/11 A2970 RMK AO1 SLP044
T02720106





000
SAUS43 KDDC 231857
MTRP28
METAR KP28 231856Z AUTO 19016KT 26/09 A2972 RMK AO1 PK WND
18026/1846 SLP051 T02610089





000
SAUS43 KDDC 231757
MTRP28
METAR KP28 231756Z AUTO 19017G24KT 26/10 A2975 RMK AO1 PK WND
20027/1714 SLP061 T02560100 10256 20128 58018





000
SAUS43 KDDC 231658
MTRP28
METAR KP28 231656Z AUTO 21019G28KT 25/10 A2978 RMK AO1 PK WND
20028/1651 SLP072 T02500100





000
SAUS43 KDDC 231558
MTRP28
METAR KP28 231556Z AUTO 19018G28KT 23/11 A2978 RMK AO1 PK WND
19028/1548 SLP073 T02280106





000
SAUS43 KDDC 231400
MTRP28
METAR KP28 231356Z AUTO 16009KT 16/07 A2982 RMK AO1 SLP090 T01610067





000
SAUS43 KDDC 231300
MTRP28
METAR KP28 231256Z AUTO 14010KT 14/05 A2983 RMK AO1 SLP093 T01390050





000
SAUS43 KDDC 231200
MTRP28
METAR KP28 231156Z AUTO 13010KT 13/04 A2983 RMK AO1 SLP093 T01280039
10161 20128 55004





000
SAUS43 KDDC 231100
MTRP28
METAR KP28 231056Z AUTO 12008KT 13/03 A2982 RMK AO1 SLP088 T01330033





000
SAUS43 KDDC 231000
MTRP28
METAR KP28 230956Z AUTO 11007KT 13/03 A2984 RMK AO1 SLP094 T01330028





000
SAUS43 KDDC 230900
MTRP28
METAR KP28 230856Z AUTO 12008KT 15/02 A2984 RMK AO1 SLP095 T01500022
56015





000
SAUS43 KDDC 230800
MTRP28
METAR KP28 230756Z AUTO 13010KT 15/02 A2985 RMK AO1 SLP098 T01500017





000
SAUS43 KDDC 230700
MTRP28
METAR KP28 230656Z AUTO 14010KT 15/02 A2987 RMK AO1 SLP104 T01500017





000
SAUS43 KDDC 230600
MTRP28
METAR KP28 230556Z AUTO 14009KT 16/01 A2989 RMK AO1 SLP112 T01560006
10244 20156 402560083 58007





000
SAUS43 KDDC 230500
MTRP28
METAR KP28 230456Z AUTO 13010KT 17/01 A2990 RMK AO1 SLP114 T01670006





000
SAUS43 KDDC 230400
MTRP28
METAR KP28 230356Z AUTO 12008KT 17/01 A2991 RMK AO1 SLP119 T01670006





000
SAUS43 KDDC 230300
MTRP28
METAR KP28 230256Z AUTO 12007KT 18/00 A2991 RMK AO1 SLP120 T01780000
55001





000
SAUS43 KDDC 230200
MTRP28
METAR KP28 230156Z AUTO 13008KT 19/M01 A2991 RMK AO1 SLP120
T01941006





000
SAUS43 KDDC 230100
MTRP28
METAR KP28 230056Z AUTO 15008KT 22/01 A2991 RMK AO1 SLP119 T02220011





000
SAUS43 KDDC 230000
MTRP28
METAR KP28 222356Z AUTO 16008G18KT 24/01 A2992 RMK AO1 SLP123
T02440006 10256 20222 56027





000
SAUS43 KDDC 222300
MTRP28
METAR KP28 222256Z AUTO 16009G18KT 25/M02 A2993 RMK AO1 SLP128
T02501017





000
SAUS43 KDDC 222200
MTRP28
METAR KP28 222156Z AUTO 17011G19KT 26/M02 A2996 RMK AO1 SLP137
T02561017





000
SAUS43 KDDC 222100
MTRP28
METAR KP28 222056Z AUTO 12007G18KT 24/M01 A3000 RMK AO1 SLP151
T02441006 58033





000
SAUS43 KDDC 222000
MTRP28
METAR KP28 221956Z AUTO 13007G17KT 24/M02 A3004 RMK AO1 SLP166
T02391017





000
SAUS43 KDDC 221900
MTRP28
METAR KP28 221856Z AUTO 12006G22KT 23/M02 A3007 RMK AO1 SLP174
T02331017





000
SAUS43 KDDC 221803 COR
MTRP28
METAR KP28 221756Z AUTO 14009G15KT 100V180 22/M02 A3010 RMK AO1
SLP186 T02221017 10228 20094 58015





000
SAUS43 KDDC 221700
MTRP28
METAR KP28 221656Z AUTO 15010G14KT 22/M01 A3013 RMK AO1 SLP197
T02171011





000
SAUS43 KDDC 221600
MTRP28
METAR KP28 221556Z AUTO 12009KT 20/M01 A3015 RMK AO1 SLP202
T02001006





000
SAUS43 KDDC 221500
MTRP28
METAR KP28 221456Z AUTO 11008KT 18/01 A3015 RMK AO1 SLP201 T01830006
51002





000
SAUS43 KDDC 221400
MTRP28
METAR KP28 221356Z AUTO 10008KT 17/01 A3015 RMK AO1 SLP200 T01670006





000
SAUS43 KDDC 221300
MTRP28
METAR KP28 221256Z AUTO 10003KT 13/00 A3015 RMK AO1 SLP201 T01280000





000
SAUS43 KDDC 221200
MTRP28
METAR KP28 221156Z AUTO 19003KT 09/01 A3014 RMK AO1 SLP199 T00940006
10139 20083 51004





000
SAUS43 KDDC 221100
MTRP28
METAR KP28 221056Z AUTO 01003KT 09/M01 A3013 RMK AO1 SLP194
T00891006





000
SAUS43 KDDC 221000
MTRP28
METAR KP28 220956Z AUTO 33003KT 11/01 A3014 RMK AO1 SLP197 T01060006





000
SAUS43 KDDC 220900
MTRP28
METAR KP28 220856Z AUTO 01004KT 11/01 A3013 RMK AO1 SLP193 T01110006
51006





000
SAUS43 KDDC 220800
MTRP28
METAR KP28 220756Z AUTO 35004KT 10/02 A3012 RMK AO1 SLP191 T01000017





000
SAUS43 KDDC 220700
MTRP28
METAR KP28 220656Z AUTO 36005KT 12/02 A3013 RMK AO1 SLP196 T01220017





000
SAUS43 KDDC 220600
MTRP28
METAR KP28 220556Z AUTO 36003KT 12/02 A3011 RMK AO1 SLP188 T01220022
10250 20111 402720111 51007





    US Dept of Commerce
    National Oceanic and Atmospheric Administration
    National Weather Service
    1325 East West Highway
    Silver Spring, MD 20910
    Page Author: NWS Internet Services Team
Disclaimer
Information Quality
Credits
Glossary
Privacy Policy
Freedom of Information Act (FOIA)
About Us
Career Opportunities